sensor_id;sensor_type;location;lat;lon;timestamp;temperature;humidity
65074;DHT22;52218;51.224;-2.328;2022-11-20T00:02:13;7.40;99.90
65074;DHT22;52218;51.224;-2.328;2022-11-20T00:06:00;7.40;99.90
65074;DHT22;52218;51.224;-2.328;2022-11-20T00:09:42;7.40;99.90
65074;DHT22;52218;51.224;-2.328;2022-11-20T00:13:24;7.40;99.90
65074;DHT22;52218;51.224;-2.328;2022-11-20T00:17:06;7.50;99.90
65074;DHT22;52218;51.224;-2.328;2022-11-20T00:20:48;7.50;99.90
65074;DHT22;52218;51.224;-2.328;2022-11-20T00:24:30;7.50;99.90
65074;DHT22;52218;51.224;-2.328;2022-11-20T00:28:12;7.60;99.90
65074;DHT22;52218;51.224;-2.328;2022-11-20T00:31:54;7.60;99.90
65074;DHT22;52218;51.224;-2.328;2022-11-20T00:35:36;7.60;99.90
65074;DHT22;52218;51.224;-2.328;2022-11-20T00:39:18;7.60;99.90
65074;DHT22;52218;51.224;-2.328;2022-11-20T00:43:00;7.60;99.90
65074;DHT22;52218;51.224;-2.328;2022-11-20T00:46:42;7.60;99.90
65074;DHT22;52218;51.224;-2.328;2022-11-20T00:50:24;7.60;99.90
65074;DHT22;52218;51.224;-2.328;2022-11-20T00:54:09;7.60;99.90
65074;DHT22;52218;51.224;-2.328;2022-11-20T00:57:51;7.60;99.90
65074;DHT22;52218;51.224;-2.328;2022-11-20T01:01:33;7.60;99.90
65074;DHT22;52218;51.224;-2.328;2022-11-20T01:05:15;7.60;99.90
65074;DHT22;52218;51.224;-2.328;2022-11-20T01:08:58;7.70;99.90
65074;DHT22;52218;51.224;-2.328;2022-11-20T01:12:40;7.60;99.90
65074;DHT22;52218;51.224;-2.328;2022-11-20T01:16:29;7.70;99.90
65074;DHT22;52218;51.224;-2.328;2022-11-20T01:20:11;7.70;99.90
65074;DHT22;52218;51.224;-2.328;2022-11-20T01:23:53;7.70;99.90
65074;DHT22;52218;51.224;-2.328;2022-11-20T01:27:35;7.70;99.90
65074;DHT22;52218;51.224;-2.328;2022-11-20T01:31:25;7.80;99.90
65074;DHT22;52218;51.224;-2.328;2022-11-20T01:35:08;7.70;99.90
65074;DHT22;52218;51.224;-2.328;2022-11-20T01:38:52;7.80;99.90
65074;DHT22;52218;51.224;-2.328;2022-11-20T01:42:35;7.80;99.90
65074;DHT22;52218;51.224;-2.328;2022-11-20T01:46:37;7.80;99.90
65074;DHT22;52218;51.224;-2.328;2022-11-20T01:50:26;7.90;99.90
65074;DHT22;52218;51.224;-2.328;2022-11-20T01:54:24;7.90;99.90
65074;DHT22;52218;51.224;-2.328;2022-11-20T01:58:07;7.90;99.90
65074;DHT22;52218;51.224;-2.328;2022-11-20T02:01:50;8.00;99.90
65074;DHT22;52218;51.224;-2.328;2022-11-20T02:09:35;8.10;99.90
65074;DHT22;52218;51.224;-2.328;2022-11-20T02:13:17;8.10;99.90
65074;DHT22;52218;51.224;-2.328;2022-11-20T02:17:18;8.20;99.90
65074;DHT22;52218;51.224;-2.328;2022-11-20T02:21:12;8.20;99.90
65074;DHT22;52218;51.224;-2.328;2022-11-20T02:24:57;8.30;99.90
65074;DHT22;52218;51.224;-2.328;2022-11-20T02:28:41;8.30;99.90
65074;DHT22;52218;51.224;-2.328;2022-11-20T02:32:26;8.30;99.90
65074;DHT22;52218;51.224;-2.328;2022-11-20T02:36:11;8.40;99.90
65074;DHT22;52218;51.224;-2.328;2022-11-20T02:39:55;8.40;99.90
65074;DHT22;52218;51.224;-2.328;2022-11-20T02:43:38;8.50;99.90
65074;DHT22;52218;51.224;-2.328;2022-11-20T02:47:20;8.50;99.90
65074;DHT22;52218;51.224;-2.328;2022-11-20T02:51:02;8.50;99.90
65074;DHT22;52218;51.224;-2.328;2022-11-20T02:54:43;8.50;99.90
65074;DHT22;52218;51.224;-2.328;2022-11-20T02:58:25;8.60;99.90
65074;DHT22;52218;51.224;-2.328;2022-11-20T03:02:07;8.60;99.90
65074;DHT22;52218;51.224;-2.328;2022-11-20T03:05:49;8.60;99.90
65074;DHT22;52218;51.224;-2.328;2022-11-20T03:09:31;8.60;99.90
65074;DHT22;52218;51.224;-2.328;2022-11-20T03:13:13;8.60;99.90
65074;DHT22;52218;51.224;-2.328;2022-11-20T03:16:55;8.70;99.90
65074;DHT22;52218;51.224;-2.328;2022-11-20T03:20:37;8.70;99.90
65074;DHT22;52218;51.224;-2.328;2022-11-20T03:24:19;8.70;99.90
65074;DHT22;52218;51.224;-2.328;2022-11-20T03:28:01;8.80;99.90
65074;DHT22;52218;51.224;-2.328;2022-11-20T03:31:43;8.80;99.90
65074;DHT22;52218;51.224;-2.328;2022-11-20T03:35:25;8.80;99.90
65074;DHT22;52218;51.224;-2.328;2022-11-20T03:39:08;8.80;99.90
65074;DHT22;52218;51.224;-2.328;2022-11-20T03:42:50;8.90;99.90
65074;DHT22;52218;51.224;-2.328;2022-11-20T03:46:32;8.90;99.90
65074;DHT22;52218;51.224;-2.328;2022-11-20T03:50:14;8.90;99.90
65074;DHT22;52218;51.224;-2.328;2022-11-20T03:53:59;8.90;99.90
65074;DHT22;52218;51.224;-2.328;2022-11-20T03:57:41;8.90;99.90
65074;DHT22;52218;51.224;-2.328;2022-11-20T04:01:28;8.90;99.90
65074;DHT22;52218;51.224;-2.328;2022-11-20T04:05:11;8.90;99.90
65074;DHT22;52218;51.224;-2.328;2022-11-20T04:08:59;8.90;99.90
65074;DHT22;52218;51.224;-2.328;2022-11-20T04:12:41;8.90;99.90
65074;DHT22;52218;51.224;-2.328;2022-11-20T04:16:24;9.00;99.90
65074;DHT22;52218;51.224;-2.328;2022-11-20T04:20:06;9.00;99.90
65074;DHT22;52218;51.224;-2.328;2022-11-20T04:23:50;9.00;99.90
65074;DHT22;52218;51.224;-2.328;2022-11-20T04:27:32;8.90;99.90
65074;DHT22;52218;51.224;-2.328;2022-11-20T04:31:17;8.90;99.90
65074;DHT22;52218;51.224;-2.328;2022-11-20T04:34:59;8.80;99.90
65074;DHT22;52218;51.224;-2.328;2022-11-20T04:38:42;8.70;99.90
65074;DHT22;52218;51.224;-2.328;2022-11-20T04:42:24;8.60;99.90
65074;DHT22;52218;51.224;-2.328;2022-11-20T04:46:12;8.50;99.90
65074;DHT22;52218;51.224;-2.328;2022-11-20T04:49:54;8.50;99.90
65074;DHT22;52218;51.224;-2.328;2022-11-20T04:53:36;8.50;99.90
65074;DHT22;52218;51.224;-2.328;2022-11-20T04:57:18;8.50;99.90
65074;DHT22;52218;51.224;-2.328;2022-11-20T05:04:53;8.40;99.90
65074;DHT22;52218;51.224;-2.328;2022-11-20T05:08:35;8.40;99.90
65074;DHT22;52218;51.224;-2.328;2022-11-20T05:12:17;8.40;99.90
65074;DHT22;52218;51.224;-2.328;2022-11-20T05:16:08;8.30;99.90
65074;DHT22;52218;51.224;-2.328;2022-11-20T05:19:50;8.30;99.90
65074;DHT22;52218;51.224;-2.328;2022-11-20T05:23:34;8.20;99.90
65074;DHT22;52218;51.224;-2.328;2022-11-20T05:27:16;8.20;99.90
65074;DHT22;52218;51.224;-2.328;2022-11-20T05:31:11;8.10;99.90
65074;DHT22;52218;51.224;-2.328;2022-11-20T05:34:53;8.10;99.90
65074;DHT22;52218;51.224;-2.328;2022-11-20T05:38:35;8.00;99.90
65074;DHT22;52218;51.224;-2.328;2022-11-20T05:42:17;7.90;99.90
65074;DHT22;52218;51.224;-2.328;2022-11-20T05:46:16;7.90;99.90
65074;DHT22;52218;51.224;-2.328;2022-11-20T05:50:01;7.90;99.90
65074;DHT22;52218;51.224;-2.328;2022-11-20T05:53:43;7.80;99.90
65074;DHT22;52218;51.224;-2.328;2022-11-20T05:57:31;7.80;99.90
65074;DHT22;52218;51.224;-2.328;2022-11-20T06:01:22;7.70;99.90
65074;DHT22;52218;51.224;-2.328;2022-11-20T06:05:05;7.70;99.90
65074;DHT22;52218;51.224;-2.328;2022-11-20T06:08:48;7.70;99.90
65074;DHT22;52218;51.224;-2.328;2022-11-20T06:12:32;7.70;99.90
65074;DHT22;52218;51.224;-2.328;2022-11-20T06:16:16;7.60;99.90
65074;DHT22;52218;51.224;-2.328;2022-11-20T06:19:58;7.60;99.90
65074;DHT22;52218;51.224;-2.328;2022-11-20T06:23:40;7.50;99.90
65074;DHT22;52218;51.224;-2.328;2022-11-20T06:27:22;7.60;99.90
65074;DHT22;52218;51.224;-2.328;2022-11-20T06:31:06;7.50;99.90
65074;DHT22;52218;51.224;-2.328;2022-11-20T06:34:48;7.50;99.90
65074;DHT22;52218;51.224;-2.328;2022-11-20T06:38:30;7.50;99.90
65074;DHT22;52218;51.224;-2.328;2022-11-20T06:42:12;7.50;99.90
65074;DHT22;52218;51.224;-2.328;2022-11-20T06:45:58;7.40;99.90
65074;DHT22;52218;51.224;-2.328;2022-11-20T06:49:40;7.40;99.90
65074;DHT22;52218;51.224;-2.328;2022-11-20T06:53:23;7.30;99.90
65074;DHT22;52218;51.224;-2.328;2022-11-20T06:57:05;7.30;99.90
65074;DHT22;52218;51.224;-2.328;2022-11-20T07:00:47;7.20;99.90
65074;DHT22;52218;51.224;-2.328;2022-11-20T07:04:29;7.10;99.90
65074;DHT22;52218;51.224;-2.328;2022-11-20T07:08:12;7.10;99.90
65074;DHT22;52218;51.224;-2.328;2022-11-20T07:11:54;7.00;99.90
65074;DHT22;52218;51.224;-2.328;2022-11-20T07:15:35;7.00;99.90
65074;DHT22;52218;51.224;-2.328;2022-11-20T07:19:17;6.90;99.90
65074;DHT22;52218;51.224;-2.328;2022-11-20T07:23:00;6.80;99.90
65074;DHT22;52218;51.224;-2.328;2022-11-20T07:26:41;6.70;99.90
65074;DHT22;52218;51.224;-2.328;2022-11-20T07:30:24;6.60;99.90
65074;DHT22;52218;51.224;-2.328;2022-11-20T07:34:06;6.60;99.90
65074;DHT22;52218;51.224;-2.328;2022-11-20T07:37:48;6.50;99.90
65074;DHT22;52218;51.224;-2.328;2022-11-20T07:41:30;6.40;99.90
65074;DHT22;52218;51.224;-2.328;2022-11-20T07:45:12;6.40;99.90
65074;DHT22;52218;51.224;-2.328;2022-11-20T07:48:54;6.40;99.90
65074;DHT22;52218;51.224;-2.328;2022-11-20T07:52:36;6.40;99.90
65074;DHT22;52218;51.224;-2.328;2022-11-20T07:56:18;6.40;99.90
65074;DHT22;52218;51.224;-2.328;2022-11-20T08:00:00;6.50;99.90
65074;DHT22;52218;51.224;-2.328;2022-11-20T08:03:42;6.50;99.90
65074;DHT22;52218;51.224;-2.328;2022-11-20T08:07:24;6.60;99.90
65074;DHT22;52218;51.224;-2.328;2022-11-20T08:11:06;6.70;99.90
65074;DHT22;52218;51.224;-2.328;2022-11-20T08:15:07;6.80;99.90
65074;DHT22;52218;51.224;-2.328;2022-11-20T08:18:54;6.90;99.90
65074;DHT22;52218;51.224;-2.328;2022-11-20T08:22:35;7.00;99.90
65074;DHT22;52218;51.224;-2.328;2022-11-20T08:26:17;7.10;99.90
65074;DHT22;52218;51.224;-2.328;2022-11-20T08:29:59;7.10;99.90
65074;DHT22;52218;51.224;-2.328;2022-11-20T08:33:41;7.20;99.90
65074;DHT22;52218;51.224;-2.328;2022-11-20T08:37:23;7.30;99.90
65074;DHT22;52218;51.224;-2.328;2022-11-20T08:41:06;7.40;99.90
65074;DHT22;52218;51.224;-2.328;2022-11-20T08:45:07;7.40;99.90
65074;DHT22;52218;51.224;-2.328;2022-11-20T08:48:49;7.50;99.90
65074;DHT22;52218;51.224;-2.328;2022-11-20T08:52:31;7.60;99.90
65074;DHT22;52218;51.224;-2.328;2022-11-20T08:56:20;7.70;99.90
65074;DHT22;52218;51.224;-2.328;2022-11-20T09:00:04;7.70;99.90
65074;DHT22;52218;51.224;-2.328;2022-11-20T09:03:47;7.70;99.90
65074;DHT22;52218;51.224;-2.328;2022-11-20T09:07:30;7.70;99.90
65074;DHT22;52218;51.224;-2.328;2022-11-20T09:11:12;7.60;99.90
65074;DHT22;52218;51.224;-2.328;2022-11-20T09:14:54;7.60;99.90
65074;DHT22;52218;51.224;-2.328;2022-11-20T09:18:36;7.50;99.90
65074;DHT22;52218;51.224;-2.328;2022-11-20T09:22:18;7.50;99.90
65074;DHT22;52218;51.224;-2.328;2022-11-20T09:26:05;7.60;99.90
65074;DHT22;52218;51.224;-2.328;2022-11-20T09:29:47;7.70;99.90
65074;DHT22;52218;51.224;-2.328;2022-11-20T09:33:29;7.80;99.90
65074;DHT22;52218;51.224;-2.328;2022-11-20T09:37:11;8.00;99.90
65074;DHT22;52218;51.224;-2.328;2022-11-20T09:40:59;8.20;99.90
65074;DHT22;52218;51.224;-2.328;2022-11-20T09:48:43;8.50;99.90
65074;DHT22;52218;51.224;-2.328;2022-11-20T09:56:19;8.80;99.90
65074;DHT22;52218;51.224;-2.328;2022-11-20T10:00:05;9.30;99.90
65074;DHT22;52218;51.224;-2.328;2022-11-20T10:04:33;9.90;99.90
65074;DHT22;52218;51.224;-2.328;2022-11-20T10:08:11;10.70;99.90
65074;DHT22;52218;51.224;-2.328;2022-11-20T10:24:43;12.40;99.90
65074;DHT22;52218;51.224;-2.328;2022-11-20T10:28:58;12.40;99.90
65074;DHT22;52218;51.224;-2.328;2022-11-20T10:32:53;12.60;99.90
65074;DHT22;52218;51.224;-2.328;2022-11-20T10:36:43;12.70;99.90
65074;DHT22;52218;51.224;-2.328;2022-11-20T10:40:42;12.70;99.90
65074;DHT22;52218;51.224;-2.328;2022-11-20T10:44:29;12.20;99.90
65074;DHT22;52218;51.224;-2.328;2022-11-20T10:48:36;12.00;99.90
65074;DHT22;52218;51.224;-2.328;2022-11-20T10:52:29;11.80;99.90
65074;DHT22;52218;51.224;-2.328;2022-11-20T10:56:22;11.70;99.90
65074;DHT22;52218;51.224;-2.328;2022-11-20T11:00:09;11.60;99.90
65074;DHT22;52218;51.224;-2.328;2022-11-20T11:03:54;11.60;99.90
65074;DHT22;52218;51.224;-2.328;2022-11-20T11:07:40;11.70;99.90
65074;DHT22;52218;51.224;-2.328;2022-11-20T11:11:26;11.70;99.90
65074;DHT22;52218;51.224;-2.328;2022-11-20T11:15:36;11.80;99.90
65074;DHT22;52218;51.224;-2.328;2022-11-20T11:19:18;12.10;99.90
65074;DHT22;52218;51.224;-2.328;2022-11-20T11:23:01;12.30;99.90
65074;DHT22;52218;51.224;-2.328;2022-11-20T11:26:51;12.40;99.90
65074;DHT22;52218;51.224;-2.328;2022-11-20T11:30:44;12.50;99.90
65074;DHT22;52218;51.224;-2.328;2022-11-20T11:34:26;12.60;99.90
65074;DHT22;52218;51.224;-2.328;2022-11-20T11:38:14;12.60;99.90
65074;DHT22;52218;51.224;-2.328;2022-11-20T11:41:58;12.40;99.90
65074;DHT22;52218;51.224;-2.328;2022-11-20T11:45:52;12.00;99.90
65074;DHT22;52218;51.224;-2.328;2022-11-20T11:49:34;12.20;99.90
65074;DHT22;52218;51.224;-2.328;2022-11-20T11:53:21;12.80;99.90
65074;DHT22;52218;51.224;-2.328;2022-11-20T11:57:11;13.20;99.90
65074;DHT22;52218;51.224;-2.328;2022-11-20T12:00:58;12.90;99.90
65074;DHT22;52218;51.224;-2.328;2022-11-20T12:04:46;12.70;99.90
65074;DHT22;52218;51.224;-2.328;2022-11-20T12:12:39;12.20;99.90
65074;DHT22;52218;51.224;-2.328;2022-11-20T12:16:24;11.90;99.90
65074;DHT22;52218;51.224;-2.328;2022-11-20T12:20:13;11.60;99.90
65074;DHT22;52218;51.224;-2.328;2022-11-20T12:24:05;11.30;99.90
65074;DHT22;52218;51.224;-2.328;2022-11-20T12:39:48;10.30;99.90
65074;DHT22;52218;51.224;-2.328;2022-11-20T12:43:39;10.10;99.90
65074;DHT22;52218;51.224;-2.328;2022-11-20T12:48:23;10.00;99.90
65074;DHT22;52218;51.224;-2.328;2022-11-20T12:52:17;10.90;99.90
65074;DHT22;52218;51.224;-2.328;2022-11-20T13:03:52;13.70;99.90
65074;DHT22;52218;51.224;-2.328;2022-11-20T13:07:38;14.40;99.90
65074;DHT22;52218;51.224;-2.328;2022-11-20T13:11:37;15.10;99.90
65074;DHT22;52218;51.224;-2.328;2022-11-20T13:19:24;14.50;99.90
65074;DHT22;52218;51.224;-2.328;2022-11-20T13:23:06;14.10;99.90
65074;DHT22;52218;51.224;-2.328;2022-11-20T13:30:52;13.90;99.90
65074;DHT22;52218;51.224;-2.328;2022-11-20T13:34:35;14.00;99.90
65074;DHT22;52218;51.224;-2.328;2022-11-20T13:38:17;14.70;99.90
65074;DHT22;52218;51.224;-2.328;2022-11-20T13:42:23;15.00;99.90
65074;DHT22;52218;51.224;-2.328;2022-11-20T13:46:10;15.20;99.90
65074;DHT22;52218;51.224;-2.328;2022-11-20T13:49:53;15.30;99.90
65074;DHT22;52218;51.224;-2.328;2022-11-20T13:53:57;15.30;99.90
65074;DHT22;52218;51.224;-2.328;2022-11-20T13:58:01;14.90;99.90
65074;DHT22;52218;51.224;-2.328;2022-11-20T14:01:46;13.90;99.90
65074;DHT22;52218;51.224;-2.328;2022-11-20T14:05:28;12.90;99.90
65074;DHT22;52218;51.224;-2.328;2022-11-20T14:09:28;12.20;99.90
65074;DHT22;52218;51.224;-2.328;2022-11-20T14:13:18;11.70;99.90
65074;DHT22;52218;51.224;-2.328;2022-11-20T14:17:08;11.20;99.90
65074;DHT22;52218;51.224;-2.328;2022-11-20T14:20:50;10.90;99.90
65074;DHT22;52218;51.224;-2.328;2022-11-20T14:24:32;10.70;99.90
65074;DHT22;52218;51.224;-2.328;2022-11-20T14:28:26;10.50;99.90
65074;DHT22;52218;51.224;-2.328;2022-11-20T14:32:09;10.40;99.90
65074;DHT22;52218;51.224;-2.328;2022-11-20T14:35:56;10.20;99.90
65074;DHT22;52218;51.224;-2.328;2022-11-20T14:39:47;10.00;99.90
65074;DHT22;52218;51.224;-2.328;2022-11-20T14:43:29;9.80;99.90
65074;DHT22;52218;51.224;-2.328;2022-11-20T14:47:29;9.50;99.90
65074;DHT22;52218;51.224;-2.328;2022-11-20T14:51:23;9.30;99.90
65074;DHT22;52218;51.224;-2.328;2022-11-20T14:55:05;9.20;99.90
65074;DHT22;52218;51.224;-2.328;2022-11-20T14:58:56;9.10;99.90
65074;DHT22;52218;51.224;-2.328;2022-11-20T15:02:41;9.00;99.90
65074;DHT22;52218;51.224;-2.328;2022-11-20T15:06:26;8.90;99.90
65074;DHT22;52218;51.224;-2.328;2022-11-20T15:10:10;8.90;99.90
65074;DHT22;52218;51.224;-2.328;2022-11-20T15:13:54;8.90;99.90
65074;DHT22;52218;51.224;-2.328;2022-11-20T15:17:37;8.90;99.90
65074;DHT22;52218;51.224;-2.328;2022-11-20T15:21:20;8.90;99.90
65074;DHT22;52218;51.224;-2.328;2022-11-20T15:25:14;8.90;99.90
65074;DHT22;52218;51.224;-2.328;2022-11-20T15:28:57;8.80;99.90
65074;DHT22;52218;51.224;-2.328;2022-11-20T15:32:39;8.80;99.90
65074;DHT22;52218;51.224;-2.328;2022-11-20T15:36:21;8.70;99.90
65074;DHT22;52218;51.224;-2.328;2022-11-20T15:40:03;8.70;99.90
65074;DHT22;52218;51.224;-2.328;2022-11-20T15:43:46;8.60;99.90
65074;DHT22;52218;51.224;-2.328;2022-11-20T15:47:32;8.50;99.90
65074;DHT22;52218;51.224;-2.328;2022-11-20T15:51:28;8.40;99.90
65074;DHT22;52218;51.224;-2.328;2022-11-20T15:55:11;8.40;99.90
65074;DHT22;52218;51.224;-2.328;2022-11-20T15:58:53;8.30;99.90
65074;DHT22;52218;51.224;-2.328;2022-11-20T16:02:35;8.20;99.90
65074;DHT22;52218;51.224;-2.328;2022-11-20T16:06:17;8.20;99.90
65074;DHT22;52218;51.224;-2.328;2022-11-20T16:09:59;8.10;99.90
65074;DHT22;52218;51.224;-2.328;2022-11-20T16:13:41;8.00;99.90
65074;DHT22;52218;51.224;-2.328;2022-11-20T16:17:42;8.00;99.90
65074;DHT22;52218;51.224;-2.328;2022-11-20T16:21:25;7.90;99.90
65074;DHT22;52218;51.224;-2.328;2022-11-20T16:25:13;7.90;99.90
65074;DHT22;52218;51.224;-2.328;2022-11-20T16:28:55;7.80;99.90
65074;DHT22;52218;51.224;-2.328;2022-11-20T16:32:38;7.80;99.90
65074;DHT22;52218;51.224;-2.328;2022-11-20T16:36:22;7.70;99.90
65074;DHT22;52218;51.224;-2.328;2022-11-20T16:40:05;7.70;99.90
65074;DHT22;52218;51.224;-2.328;2022-11-20T16:43:50;7.60;99.90
65074;DHT22;52218;51.224;-2.328;2022-11-20T16:47:33;7.60;99.90
65074;DHT22;52218;51.224;-2.328;2022-11-20T16:51:15;7.60;99.90
65074;DHT22;52218;51.224;-2.328;2022-11-20T16:54:58;7.50;99.90
65074;DHT22;52218;51.224;-2.328;2022-11-20T16:58:40;7.50;99.90
65074;DHT22;52218;51.224;-2.328;2022-11-20T17:02:22;7.40;99.90
65074;DHT22;52218;51.224;-2.328;2022-11-20T17:06:34;7.40;99.90
65074;DHT22;52218;51.224;-2.328;2022-11-20T17:10:16;7.30;99.90
65074;DHT22;52218;51.224;-2.328;2022-11-20T17:13:58;7.20;99.90
65074;DHT22;52218;51.224;-2.328;2022-11-20T17:17:44;7.10;99.90
65074;DHT22;52218;51.224;-2.328;2022-11-20T17:21:26;7.00;99.90
65074;DHT22;52218;51.224;-2.328;2022-11-20T17:25:10;6.90;99.90
65074;DHT22;52218;51.224;-2.328;2022-11-20T17:28:57;6.80;99.90
65074;DHT22;52218;51.224;-2.328;2022-11-20T17:32:40;6.60;99.90
65074;DHT22;52218;51.224;-2.328;2022-11-20T17:36:27;6.50;99.90
65074;DHT22;52218;51.224;-2.328;2022-11-20T17:40:09;6.40;99.90
65074;DHT22;52218;51.224;-2.328;2022-11-20T17:43:58;6.30;99.90
65074;DHT22;52218;51.224;-2.328;2022-11-20T17:47:40;6.20;99.90
65074;DHT22;52218;51.224;-2.328;2022-11-20T17:51:27;6.10;99.90
65074;DHT22;52218;51.224;-2.328;2022-11-20T17:55:09;6.00;99.90
65074;DHT22;52218;51.224;-2.328;2022-11-20T17:58:51;5.90;99.90
65074;DHT22;52218;51.224;-2.328;2022-11-20T18:02:33;5.90;99.90
65074;DHT22;52218;51.224;-2.328;2022-11-20T18:06:18;5.70;99.90
65074;DHT22;52218;51.224;-2.328;2022-11-20T18:10:01;5.60;99.90
65074;DHT22;52218;51.224;-2.328;2022-11-20T18:13:44;5.60;99.90
65074;DHT22;52218;51.224;-2.328;2022-11-20T18:17:45;5.40;99.90
65074;DHT22;52218;51.224;-2.328;2022-11-20T18:21:28;5.40;99.90
65074;DHT22;52218;51.224;-2.328;2022-11-20T18:25:11;5.30;99.90
65074;DHT22;52218;51.224;-2.328;2022-11-20T18:28:53;5.20;99.90
65074;DHT22;52218;51.224;-2.328;2022-11-20T18:32:36;5.10;99.90
65074;DHT22;52218;51.224;-2.328;2022-11-20T18:36:23;5.00;99.90
65074;DHT22;52218;51.224;-2.328;2022-11-20T18:40:05;4.90;99.90
65074;DHT22;52218;51.224;-2.328;2022-11-20T18:43:48;4.80;99.90
65074;DHT22;52218;51.224;-2.328;2022-11-20T18:47:50;4.80;99.90
65074;DHT22;52218;51.224;-2.328;2022-11-20T18:51:33;4.70;99.90
65074;DHT22;52218;51.224;-2.328;2022-11-20T18:55:15;4.70;99.90
65074;DHT22;52218;51.224;-2.328;2022-11-20T18:58:59;4.60;99.90
65074;DHT22;52218;51.224;-2.328;2022-11-20T19:02:42;4.60;99.90
65074;DHT22;52218;51.224;-2.328;2022-11-20T19:06:25;4.50;99.90
65074;DHT22;52218;51.224;-2.328;2022-11-20T19:10:08;4.50;99.90
65074;DHT22;52218;51.224;-2.328;2022-11-20T19:13:50;4.40;99.90
65074;DHT22;52218;51.224;-2.328;2022-11-20T19:17:33;4.30;99.90
65074;DHT22;52218;51.224;-2.328;2022-11-20T19:21:17;4.30;99.90
65074;DHT22;52218;51.224;-2.328;2022-11-20T19:24:59;4.20;99.90
65074;DHT22;52218;51.224;-2.328;2022-11-20T19:28:43;4.10;99.90
65074;DHT22;52218;51.224;-2.328;2022-11-20T19:32:25;4.10;99.90
65074;DHT22;52218;51.224;-2.328;2022-11-20T19:36:11;4.00;99.90
65074;DHT22;52218;51.224;-2.328;2022-11-20T19:39:54;4.00;99.90
65074;DHT22;52218;51.224;-2.328;2022-11-20T19:43:40;3.90;99.90
65074;DHT22;52218;51.224;-2.328;2022-11-20T19:47:22;3.90;99.90
65074;DHT22;52218;51.224;-2.328;2022-11-20T19:51:29;3.90;99.90
65074;DHT22;52218;51.224;-2.328;2022-11-20T19:55:11;3.90;99.90
65074;DHT22;52218;51.224;-2.328;2022-11-20T19:58:55;3.80;99.90
65074;DHT22;52218;51.224;-2.328;2022-11-20T20:02:37;3.80;99.90
65074;DHT22;52218;51.224;-2.328;2022-11-20T20:06:22;3.80;99.90
65074;DHT22;52218;51.224;-2.328;2022-11-20T20:10:05;3.80;99.90
65074;DHT22;52218;51.224;-2.328;2022-11-20T20:13:47;3.90;99.90
65074;DHT22;52218;51.224;-2.328;2022-11-20T20:17:29;3.90;99.90
65074;DHT22;52218;51.224;-2.328;2022-11-20T20:21:14;3.90;99.90
65074;DHT22;52218;51.224;-2.328;2022-11-20T20:24:56;3.90;99.90
65074;DHT22;52218;51.224;-2.328;2022-11-20T20:28:38;3.90;99.90
65074;DHT22;52218;51.224;-2.328;2022-11-20T20:32:20;3.90;99.90
65074;DHT22;52218;51.224;-2.328;2022-11-20T20:36:07;3.90;99.90
65074;DHT22;52218;51.224;-2.328;2022-11-20T20:39:49;3.90;99.90
65074;DHT22;52218;51.224;-2.328;2022-11-20T20:43:31;3.90;99.90
65074;DHT22;52218;51.224;-2.328;2022-11-20T20:47:35;3.90;99.90
65074;DHT22;52218;51.224;-2.328;2022-11-20T20:51:17;3.90;99.90
65074;DHT22;52218;51.224;-2.328;2022-11-20T20:54:59;3.80;99.90
65074;DHT22;52218;51.224;-2.328;2022-11-20T20:58:42;3.80;99.90
65074;DHT22;52218;51.224;-2.328;2022-11-20T21:02:24;3.80;99.90
65074;DHT22;52218;51.224;-2.328;2022-11-20T21:06:07;3.80;99.90
65074;DHT22;52218;51.224;-2.328;2022-11-20T21:09:50;3.80;99.90
65074;DHT22;52218;51.224;-2.328;2022-11-20T21:13:34;3.80;99.90
65074;DHT22;52218;51.224;-2.328;2022-11-20T21:17:16;3.70;99.90
65074;DHT22;52218;51.224;-2.328;2022-11-20T21:20:58;3.80;99.90
65074;DHT22;52218;51.224;-2.328;2022-11-20T21:25:00;3.80;99.90
65074;DHT22;52218;51.224;-2.328;2022-11-20T21:28:43;3.80;99.90
65074;DHT22;52218;51.224;-2.328;2022-11-20T21:32:25;3.80;99.90
65074;DHT22;52218;51.224;-2.328;2022-11-20T21:36:08;3.80;99.90
65074;DHT22;52218;51.224;-2.328;2022-11-20T21:39:50;3.80;99.90
65074;DHT22;52218;51.224;-2.328;2022-11-20T21:43:33;3.80;99.90
65074;DHT22;52218;51.224;-2.328;2022-11-20T21:47:15;3.80;99.90
65074;DHT22;52218;51.224;-2.328;2022-11-20T21:51:09;3.80;99.90
65074;DHT22;52218;51.224;-2.328;2022-11-20T21:54:51;3.80;99.90
65074;DHT22;52218;51.224;-2.328;2022-11-20T21:58:38;3.80;99.90
65074;DHT22;52218;51.224;-2.328;2022-11-20T22:02:20;3.70;99.90
65074;DHT22;52218;51.224;-2.328;2022-11-20T22:06:03;3.70;99.90
65074;DHT22;52218;51.224;-2.328;2022-11-20T22:09:45;3.70;99.90
65074;DHT22;52218;51.224;-2.328;2022-11-20T22:13:27;3.70;99.90
65074;DHT22;52218;51.224;-2.328;2022-11-20T22:17:28;3.70;99.90
65074;DHT22;52218;51.224;-2.328;2022-11-20T22:21:30;3.70;99.90
65074;DHT22;52218;51.224;-2.328;2022-11-20T22:25:12;3.80;99.90
65074;DHT22;52218;51.224;-2.328;2022-11-20T22:28:56;3.80;99.90
65074;DHT22;52218;51.224;-2.328;2022-11-20T22:32:39;3.80;99.90
65074;DHT22;52218;51.224;-2.328;2022-11-20T22:36:25;3.80;99.90
65074;DHT22;52218;51.224;-2.328;2022-11-20T22:40:09;3.80;99.90
65074;DHT22;52218;51.224;-2.328;2022-11-20T22:43:58;3.80;99.90
65074;DHT22;52218;51.224;-2.328;2022-11-20T22:47:40;3.80;99.90
65074;DHT22;52218;51.224;-2.328;2022-11-20T22:51:25;3.80;99.90
65074;DHT22;52218;51.224;-2.328;2022-11-20T22:55:07;3.80;99.90
65074;DHT22;52218;51.224;-2.328;2022-11-20T22:58:56;3.70;99.90
65074;DHT22;52218;51.224;-2.328;2022-11-20T23:02:43;3.70;99.90
65074;DHT22;52218;51.224;-2.328;2022-11-20T23:06:26;3.70;99.90
65074;DHT22;52218;51.224;-2.328;2022-11-20T23:10:09;3.60;99.90
65074;DHT22;52218;51.224;-2.328;2022-11-20T23:14:01;3.60;99.90
65074;DHT22;52218;51.224;-2.328;2022-11-20T23:17:43;3.60;99.90
65074;DHT22;52218;51.224;-2.328;2022-11-20T23:21:25;3.60;99.90
65074;DHT22;52218;51.224;-2.328;2022-11-20T23:25:08;3.50;99.90
65074;DHT22;52218;51.224;-2.328;2022-11-20T23:28:52;3.50;99.90
65074;DHT22;52218;51.224;-2.328;2022-11-20T23:32:34;3.50;99.90
65074;DHT22;52218;51.224;-2.328;2022-11-20T23:36:16;3.60;99.90
65074;DHT22;52218;51.224;-2.328;2022-11-20T23:39:59;3.70;99.90
65074;DHT22;52218;51.224;-2.328;2022-11-20T23:43:41;3.80;99.90
65074;DHT22;52218;51.224;-2.328;2022-11-20T23:47:23;3.90;99.90
65074;DHT22;52218;51.224;-2.328;2022-11-20T23:51:06;3.90;99.90
65074;DHT22;52218;51.224;-2.328;2022-11-20T23:54:48;3.90;99.90
65074;DHT22;52218;51.224;-2.328;2022-11-20T23:58:32;3.80;99.90
